Conway, NH (03818)

12:58 PM EST on December 20, 2014 (GMT -0500)
101 Pollard St | Change Station
CLOSE
Current Station
Personal Weather Station
Location: Conway, NH
Elevation: 489 ft
Nearby Weather Stations

Elev 489 ft 43.98 °N, 71.11 °W | Updated 5 seconds ago

Clear
Clear
29.7 °F
Feels Like 30 °F
N
0.0
Wind Variable Wind from NW
Gusts 0.0 mph

Today
High -- | Low -- °F
--% Chance of Precip.
Yesterday
High -- | Low -- °F
Precip. -- in
7:15 AM 4:09 PM
Waning Crescent, 2% visible
Pressure 30.30 in
Visibility 10.0 miles
Clouds Clear
Windchill 30 °F
Dew Point 19 °F
Humidity 63%
Rainfall 0.00 in
Snow Depth Not available.
UV 2 out of 12
Pollen .10 out of 12
Air Quality Not available.
Flu Activity Not available.
METAR KIZG 201754Z AUTO 00000KT 10SM CLR 00/M09 A3027 RMK AO2 SLP258 T00001089 10000 21128 56019

More Conditions Fewer Conditions

Pressure 30.30 in
Visibility 10.0 miles
Clouds Clear
Windchill 30 °F
Dew Point 19 °F
Humidity 63%
Rainfall 0.00 in
Snow Depth Not available.
UV 2 out of 12
Pollen .10 out of 12
Air Quality Not available.
Flu Activity Not available.
METAR KIZG 201754Z AUTO 00000KT 10SM CLR 00/M09 A3027 RMK AO2 SLP258 T00001089 10000 21128 56019

More Conditions Fewer Conditions

10-Day Weather Forecast

Almanac

Astronomy

Dec. 20, 2014 Rise Set
Actual Time
Civil Twilight
Nautical Twilight
Astronomical Twilight
Moon
Length of Visible Light
Length of Day
Tomorrow will be .
, % of the Moon is Illuminated

Today's Extremes

State Highs State Lows

Community

WunderPhotos

Upload Photos

1,779,228 photos uploaded!

WunderBlogs® & News

Nearby

Air Quality

  Air Quality AQ Index Pollutant
Not available.

Snow Depth

Station Depth Elevation

Earthquake Activity

City Distance Mag. Time & Date
Minimum magnitude displayed is 2.5.

Coastal Water Temperatures

Place Temperature

Nearby Weather Stations